Página principal
METAR-TAF:

METAR-TAF

Aeroportos :

Koumac, Nova Caledónia

latitude: 20-34S, longitude: 164-17E, altura: 23 m

METAR: em falta

Hora: 13:25 (02:25 UTC)

Previsão

O boletim foi feito há 3 horas e 25 minutos, às 23:00 UTC
Previsão válida de 23 às 00 UTC a 23 às 24 UTC
Vento 10 kt de sudoeste
Visibilidade 10 km ou mais
Poucas nuvensa uma altura de 3000 ft
Nuvens fragmentadasa uma altura de 4500 ft
Temporariamente
de 23 às 00 UTC a 23 às 09 UTC
Visibilidade: 3000 m
Nuvens fragmentadasa uma altura de 900 ft
Poucas nuvensa uma altura de 1200 ft, Cumulonimbus.
Nuvens dispersasa uma altura de 1400 ft, Cumulus congestus.
aguaceiros de chuva
Tornando-se
de 23 às 06 UTC a 23 às 08 UTC
Vento 3 kt com direcção variável
Tornando-se
de 23 às 22 UTC a 23 às 24 UTC
Vento 10 kt de nor-nordeste

TAF: NWWK 222300Z 2300/2324 22010KT 9999 FEW030 BKN045 TEMPO 2300/2309 3000 SHRA BKN009 FEW012CB SCT014TCU BECMG 2306/2308 VRB03KT BECMG 2322/2324 02010KT

Observações e previsões do tempo de mais de 4000 aeroportos (mensagens METAR e TAF).

As estações disponíveis são os pontos amarelos e vermelhos sobre o mapa.

Mova o rato sobre o mapa para ver o nome da estação.

Depois clique no ponto para visualizar as observações e previsões meteorológicas.

Para alterar o mapa : clique nos botões verdes com uma cruz preta para aumentar o zoom; no botão verde com uma pitada de zoom; ou nas setas verdes para mapas adjacentes.


METAR-TAF: